createdAt,value
2024-01-26T00:00:59.787Z,927.18
2024-01-26T00:01:59.695Z,927.21
2024-01-26T00:02:59.816Z,927.21
2024-01-26T00:03:59.850Z,927.22
2024-01-26T00:04:59.715Z,927.23
2024-01-26T00:05:59.779Z,927.22
2024-01-26T00:06:59.882Z,927.23
2024-01-26T00:07:59.560Z,927.21
2024-01-26T00:08:59.571Z,927.23
2024-01-26T00:09:59.736Z,927.24
2024-01-26T00:10:59.584Z,927.24
2024-01-26T00:11:59.682Z,927.26
2024-01-26T00:12:59.580Z,927.27
2024-01-26T00:13:59.476Z,927.25
2024-01-26T00:14:59.503Z,927.20
2024-01-26T00:15:59.645Z,927.21
2024-01-26T00:16:59.519Z,927.22
2024-01-26T00:17:59.569Z,927.23
2024-01-26T00:18:59.461Z,927.22
2024-01-26T00:19:59.429Z,927.23
2024-01-26T00:20:59.440Z,927.23
2024-01-26T00:21:59.501Z,927.25
2024-01-26T00:22:59.387Z,927.24
2024-01-26T00:23:59.766Z,927.26
2024-01-26T00:24:59.424Z,927.28
2024-01-26T00:25:59.389Z,927.28
2024-01-26T00:26:59.389Z,927.26
2024-01-26T00:28:00.281Z,927.26
2024-01-26T00:28:59.306Z,927.21
2024-01-26T00:29:59.523Z,927.19
2024-01-26T00:30:59.387Z,927.19
2024-01-26T00:31:59.288Z,927.19
2024-01-26T00:32:59.487Z,927.18
2024-01-26T00:33:59.380Z,927.19
2024-01-26T00:35:00.507Z,927.17
2024-01-26T00:35:59.543Z,927.16
2024-01-26T00:36:59.417Z,927.15
2024-01-26T00:37:59.241Z,927.18
2024-01-26T00:38:59.347Z,927.16
2024-01-26T00:39:59.327Z,927.16
2024-01-26T00:40:59.150Z,927.14
2024-01-26T00:41:59.377Z,927.15
2024-01-26T00:42:59.395Z,927.20
2024-01-26T00:43:59.217Z,927.18
2024-01-26T00:44:59.282Z,927.22
2024-01-26T00:45:59.143Z,927.18
2024-01-26T00:46:59.099Z,927.19
2024-01-26T00:47:59.416Z,927.20
2024-01-26T00:48:59.275Z,927.21
2024-01-26T00:49:59.217Z,927.23
2024-01-26T00:50:59.549Z,927.21
2024-01-26T00:51:59.068Z,927.22
2024-01-26T00:52:59.036Z,927.20
2024-01-26T00:53:59.067Z,927.20
2024-01-26T00:54:59.118Z,927.20
2024-01-26T00:55:59.050Z,927.19
2024-01-26T00:56:59.166Z,927.21
2024-01-26T00:57:59.021Z,927.20
2024-01-26T00:58:58.984Z,927.20
2024-01-26T00:59:59.508Z,927.22
2024-01-26T01:00:59.039Z,927.21
2024-01-26T01:01:59.174Z,927.20
2024-01-26T01:02:59.033Z,927.22
2024-01-26T01:03:58.908Z,927.21
2024-01-26T01:04:59.009Z,927.20
2024-01-26T01:05:58.997Z,927.21
2024-01-26T01:06:59.019Z,927.21
2024-01-26T01:07:58.931Z,927.21
2024-01-26T01:08:59.045Z,927.19
2024-01-26T01:09:58.967Z,927.19
2024-01-26T01:10:58.915Z,927.17
2024-01-26T01:11:58.902Z,927.17
2024-01-26T01:12:58.848Z,927.15
2024-01-26T01:13:58.865Z,927.13
2024-01-26T01:14:59.214Z,927.10
2024-01-26T01:15:58.815Z,927.11
2024-01-26T01:16:58.794Z,927.08
2024-01-26T01:17:58.810Z,927.06
2024-01-26T01:18:58.974Z,927.05
2024-01-26T01:19:58.709Z,927.03
2024-01-26T01:20:58.941Z,927.03
2024-01-26T01:21:58.704Z,927.00
2024-01-26T01:22:58.738Z,926.98
2024-01-26T01:23:58.765Z,927.00
2024-01-26T01:24:58.646Z,927.02
2024-01-26T01:25:58.688Z,927.01
2024-01-26T01:26:58.893Z,927.00
2024-01-26T01:27:58.654Z,927.02
2024-01-26T01:28:58.668Z,927.02
2024-01-26T01:29:58.658Z,927.01
2024-01-26T01:30:58.582Z,927.02
2024-01-26T01:31:58.620Z,927.03
2024-01-26T01:32:58.754Z,927.00
2024-01-26T01:33:58.790Z,927.00
2024-01-26T01:34:58.598Z,926.99
2024-01-26T01:35:58.885Z,926.97
2024-01-26T01:36:58.599Z,926.97
2024-01-26T01:37:58.532Z,927.01
2024-01-26T01:38:58.567Z,926.97
2024-01-26T01:39:58.628Z,926.97
2024-01-26T01:40:58.643Z,926.93
2024-01-26T01:41:58.928Z,926.90
2024-01-26T01:42:58.557Z,926.89
2024-01-26T01:43:58.450Z,926.91
2024-01-26T01:44:58.460Z,926.90
2024-01-26T01:45:58.555Z,926.88
2024-01-26T01:46:58.489Z,926.90
2024-01-26T01:47:58.990Z,926.86
2024-01-26T01:48:58.535Z,926.86
2024-01-26T01:49:58.426Z,926.86
2024-01-26T01:50:59.074Z,926.84
2024-01-26T01:51:58.513Z,926.84
2024-01-26T01:52:58.611Z,926.83
2024-01-26T01:53:58.552Z,926.82
2024-01-26T01:54:58.746Z,926.82
2024-01-26T01:55:58.350Z,926.82
2024-01-26T01:56:58.364Z,926.82
2024-01-26T01:57:58.333Z,926.82
2024-01-26T01:58:58.367Z,926.80
2024-01-26T01:59:58.530Z,926.79
2024-01-26T02:00:58.362Z,926.77
2024-01-26T02:01:58.311Z,926.79
2024-01-26T02:02:58.358Z,926.78
2024-01-26T02:03:58.493Z,926.75
2024-01-26T02:04:58.327Z,926.75
2024-01-26T02:05:58.512Z,926.74
2024-01-26T02:06:58.193Z,926.74
2024-01-26T02:07:58.217Z,926.75
2024-01-26T02:08:58.422Z,926.77
2024-01-26T02:09:58.312Z,926.77
2024-01-26T02:10:58.328Z,926.80
2024-01-26T02:11:58.447Z,926.81
2024-01-26T02:12:58.108Z,926.78
2024-01-26T02:13:58.144Z,926.80
2024-01-26T02:14:58.177Z,926.76
2024-01-26T02:15:58.410Z,926.77
2024-01-26T02:16:58.269Z,926.73
2024-01-26T02:17:58.292Z,926.71
2024-01-26T02:18:58.230Z,926.71
2024-01-26T02:19:58.092Z,926.70
2024-01-26T02:20:58.112Z,926.70
2024-01-26T02:21:58.405Z,926.67
2024-01-26T02:22:58.070Z,926.66
2024-01-26T02:23:58.035Z,926.65
2024-01-26T02:24:58.020Z,926.68
2024-01-26T02:25:58.014Z,926.67
2024-01-26T02:26:57.998Z,926.70
2024-01-26T02:27:58.216Z,926.66
2024-01-26T02:28:57.972Z,926.69
2024-01-26T02:29:58.022Z,926.70
2024-01-26T02:30:58.013Z,926.70
2024-01-26T02:31:57.919Z,926.68
2024-01-26T02:32:58.041Z,926.67
2024-01-26T02:33:58.063Z,926.66
2024-01-26T02:34:57.989Z,926.65
2024-01-26T02:35:58.044Z,926.66
2024-01-26T02:36:57.850Z,926.63
2024-01-26T02:37:57.864Z,926.60
2024-01-26T02:38:57.879Z,926.60
2024-01-26T02:39:57.872Z,926.64
2024-01-26T02:40:57.866Z,926.64
2024-01-26T02:41:58.093Z,926.65
2024-01-26T02:42:57.793Z,926.68
2024-01-26T02:43:57.830Z,926.68
2024-01-26T02:44:57.988Z,926.67
2024-01-26T02:45:57.858Z,926.65
2024-01-26T02:46:57.785Z,926.62
2024-01-26T02:47:58.245Z,926.61
2024-01-26T02:48:57.892Z,926.64
2024-01-26T02:49:57.750Z,926.63
2024-01-26T02:50:58.509Z,926.59
2024-01-26T02:51:57.683Z,926.63
2024-01-26T02:52:57.701Z,926.63
2024-01-26T02:53:57.842Z,926.61
2024-01-26T02:54:57.771Z,926.61
2024-01-26T02:55:57.664Z,926.59
2024-01-26T02:56:57.735Z,926.59
2024-01-26T02:57:57.620Z,926.56
2024-01-26T02:58:57.603Z,926.57
2024-01-26T02:59:57.726Z,926.55
2024-01-26T03:00:57.730Z,926.55
2024-01-26T03:01:57.716Z,926.52
2024-01-26T03:02:57.630Z,926.54
2024-01-26T03:03:57.662Z,926.56
2024-01-26T03:04:57.657Z,926.54
2024-01-26T03:05:57.618Z,926.55
2024-01-26T03:06:57.849Z,926.54
2024-01-26T03:07:57.564Z,926.54
2024-01-26T03:08:57.722Z,926.59
2024-01-26T03:09:57.476Z,926.53
2024-01-26T03:10:57.568Z,926.55
2024-01-26T03:11:57.640Z,926.55
2024-01-26T03:12:57.497Z,926.54
2024-01-26T03:13:57.498Z,926.52
2024-01-26T03:14:57.645Z,926.50
2024-01-26T03:15:57.418Z,926.47
2024-01-26T03:16:57.418Z,926.48
2024-01-26T03:17:57.529Z,926.49
2024-01-26T03:18:57.853Z,926.50
2024-01-26T03:19:57.534Z,926.48
2024-01-26T03:20:57.539Z,926.49
2024-01-26T03:21:57.435Z,926.48
2024-01-26T03:22:57.369Z,926.47
2024-01-26T03:23:57.414Z,926.46
2024-01-26T03:24:57.381Z,926.46
2024-01-26T03:25:57.373Z,926.44
2024-01-26T03:26:57.402Z,926.42
2024-01-26T03:27:57.264Z,926.39
2024-01-26T03:28:57.594Z,926.39
2024-01-26T03:29:57.417Z,926.37
2024-01-26T03:30:57.291Z,926.38
2024-01-26T03:31:57.305Z,926.37
2024-01-26T03:32:57.410Z,926.37
2024-01-26T03:33:57.497Z,926.37
2024-01-26T03:34:57.480Z,926.35
2024-01-26T03:35:57.386Z,926.33
2024-01-26T03:36:57.370Z,926.32
2024-01-26T03:37:57.242Z,926.30
2024-01-26T03:38:57.525Z,926.28
2024-01-26T03:39:57.255Z,926.27
2024-01-26T03:40:57.199Z,926.26
2024-01-26T03:41:57.241Z,926.25
2024-01-26T03:42:57.293Z,926.23
2024-01-26T03:43:57.181Z,926.22
2024-01-26T03:44:57.255Z,926.22
2024-01-26T03:45:57.223Z,926.22
2024-01-26T03:46:57.118Z,926.20
2024-01-26T03:47:57.158Z,926.20
2024-01-26T03:48:57.254Z,926.19
2024-01-26T03:49:57.159Z,926.19
2024-01-26T03:50:57.150Z,926.17
2024-01-26T03:51:57.041Z,926.16
2024-01-26T03:52:57.252Z,926.13
2024-01-26T03:53:57.047Z,926.12
2024-01-26T03:54:57.158Z,926.11
2024-01-26T03:55:57.077Z,926.10
2024-01-26T03:56:57.105Z,926.08
2024-01-26T03:57:56.977Z,926.07
2024-01-26T03:58:57.183Z,926.05
2024-01-26T03:59:57.001Z,926.05
2024-01-26T04:00:57.207Z,926.03
2024-01-26T04:01:56.971Z,926.04
2024-01-26T04:02:57.086Z,926.05
2024-01-26T04:03:56.927Z,926.03
2024-01-26T04:04:56.917Z,926.04
2024-01-26T04:05:57.891Z,926.04
2024-01-26T04:06:56.993Z,926.02
2024-01-26T04:07:56.937Z,926.00
2024-01-26T04:08:57.000Z,926.00
2024-01-26T04:09:56.860Z,925.98
2024-01-26T04:10:56.883Z,925.98
2024-01-26T04:11:56.987Z,925.96
2024-01-26T04:12:56.950Z,925.95
2024-01-26T04:13:56.870Z,925.96
2024-01-26T04:14:56.902Z,925.94
2024-01-26T04:15:56.776Z,925.94
2024-01-26T04:16:56.789Z,925.93
2024-01-26T04:17:56.990Z,925.91
2024-01-26T04:18:57.126Z,925.91
2024-01-26T04:19:57.631Z,925.88
2024-01-26T04:20:56.777Z,925.88
2024-01-26T04:21:56.714Z,925.88
2024-01-26T04:22:57.013Z,925.86
2024-01-26T04:23:56.674Z,925.83
2024-01-26T04:24:56.636Z,925.82
2024-01-26T04:25:56.674Z,925.80
2024-01-26T04:26:56.681Z,925.77
2024-01-26T04:27:56.631Z,925.73
2024-01-26T04:28:56.667Z,925.70
2024-01-26T04:29:56.607Z,925.68
2024-01-26T04:30:56.582Z,925.64
2024-01-26T04:31:56.580Z,925.62
2024-01-26T04:32:56.761Z,925.61
2024-01-26T04:33:57.559Z,925.61
2024-01-26T04:34:56.586Z,925.59
2024-01-26T04:35:56.558Z,925.56
2024-01-26T04:36:56.652Z,925.56
2024-01-26T04:37:56.457Z,925.55
2024-01-26T04:38:56.928Z,925.55
2024-01-26T04:39:56.624Z,925.53
2024-01-26T04:40:56.524Z,925.53
2024-01-26T04:41:56.568Z,925.52
2024-01-26T04:42:56.455Z,925.52
2024-01-26T04:43:56.545Z,925.48
2024-01-26T04:44:56.795Z,925.43
2024-01-26T04:45:56.468Z,925.39
2024-01-26T04:46:56.515Z,925.37
2024-01-26T04:47:56.460Z,925.35
2024-01-26T04:48:56.632Z,925.38
2024-01-26T04:49:56.503Z,925.38
2024-01-26T04:50:56.346Z,925.40
2024-01-26T04:51:56.346Z,925.40
2024-01-26T04:52:56.766Z,925.38
2024-01-26T04:53:56.351Z,925.41
2024-01-26T04:54:56.365Z,925.42
2024-01-26T04:55:56.423Z,925.44
2024-01-26T04:56:56.324Z,925.44
2024-01-26T04:57:56.282Z,925.44
2024-01-26T04:58:56.716Z,925.43
2024-01-26T04:59:56.292Z,925.42
2024-01-26T05:00:56.318Z,925.41
2024-01-26T05:01:56.252Z,925.41
2024-01-26T05:02:56.367Z,925.44
2024-01-26T05:03:56.377Z,925.45
2024-01-26T05:04:56.232Z,925.43
2024-01-26T05:05:56.340Z,925.44
2024-01-26T05:06:56.302Z,925.45
2024-01-26T05:07:56.198Z,925.44
2024-01-26T05:08:56.279Z,925.43
2024-01-26T05:09:56.116Z,925.40
2024-01-26T05:10:56.136Z,925.39
2024-01-26T05:11:56.171Z,925.38
2024-01-26T05:12:56.119Z,925.38
2024-01-26T05:13:56.331Z,925.37
2024-01-26T05:14:56.271Z,925.36
2024-01-26T05:15:56.055Z,925.35
2024-01-26T05:16:56.095Z,925.34
2024-01-26T05:17:56.158Z,925.32
2024-01-26T05:18:56.300Z,925.31
2024-01-26T05:19:56.111Z,925.31
2024-01-26T05:20:56.006Z,925.28
2024-01-26T05:21:56.130Z,925.27
2024-01-26T05:22:56.008Z,925.28
2024-01-26T05:23:56.031Z,925.28
2024-01-26T05:24:56.017Z,925.28
2024-01-26T05:25:55.925Z,925.28
2024-01-26T05:26:56.061Z,925.27
2024-01-26T05:27:56.037Z,925.27
2024-01-26T05:28:56.288Z,925.28
2024-01-26T05:29:55.999Z,925.25
2024-01-26T05:30:56.064Z,925.23
2024-01-26T05:31:55.991Z,925.21
2024-01-26T05:32:56.005Z,925.21
2024-01-26T05:33:56.164Z,925.20
2024-01-26T05:34:56.198Z,925.18
2024-01-26T05:35:55.911Z,925.19
2024-01-26T05:36:55.897Z,925.18
2024-01-26T05:37:55.945Z,925.19
2024-01-26T05:38:55.819Z,925.19
2024-01-26T05:39:58.131Z,925.19
2024-01-26T05:40:56.551Z,925.19
2024-01-26T05:41:55.841Z,925.20
2024-01-26T05:42:55.837Z,925.20
2024-01-26T05:43:55.800Z,925.20
2024-01-26T05:44:55.908Z,925.20
2024-01-26T05:45:55.961Z,925.20
2024-01-26T05:46:55.700Z,925.22
2024-01-26T05:47:56.132Z,925.20
2024-01-26T05:48:55.872Z,925.22
2024-01-26T05:49:55.749Z,925.21
2024-01-26T05:50:55.766Z,925.22
2024-01-26T05:51:55.794Z,925.23
2024-01-26T05:52:55.632Z,925.22
2024-01-26T05:53:55.865Z,925.20
2024-01-26T05:54:55.640Z,925.19
2024-01-26T05:55:55.700Z,925.19
2024-01-26T05:56:55.638Z,925.20
2024-01-26T05:57:55.685Z,925.21
2024-01-26T05:58:55.595Z,925.22
2024-01-26T05:59:55.705Z,925.24
2024-01-26T06:00:55.600Z,925.25
2024-01-26T06:01:55.657Z,925.27
2024-01-26T06:02:55.608Z,925.28
2024-01-26T06:03:55.646Z,925.29
2024-01-26T06:04:55.563Z,925.29
2024-01-26T06:05:55.556Z,925.29
2024-01-26T06:06:55.597Z,925.28
2024-01-26T06:07:55.482Z,925.32
2024-01-26T06:08:55.571Z,925.32
2024-01-26T06:09:55.573Z,925.34
2024-01-26T06:10:55.442Z,925.32
2024-01-26T06:11:55.437Z,925.30
2024-01-26T06:12:55.482Z,925.30
2024-01-26T06:13:55.500Z,925.32
2024-01-26T06:14:55.505Z,925.29
2024-01-26T06:15:55.412Z,925.29
2024-01-26T06:16:55.443Z,925.26
2024-01-26T06:17:55.511Z,925.28
2024-01-26T06:18:55.591Z,925.29
2024-01-26T06:19:55.401Z,925.27
2024-01-26T06:20:55.446Z,925.27
2024-01-26T06:21:55.450Z,925.26
2024-01-26T06:22:55.489Z,925.24
2024-01-26T06:23:55.496Z,925.22
2024-01-26T06:24:55.394Z,925.22
2024-01-26T06:25:55.412Z,925.21
2024-01-26T06:26:55.434Z,925.21
2024-01-26T06:27:55.251Z,925.21
2024-01-26T06:28:55.244Z,925.21
2024-01-26T06:29:55.270Z,925.21
2024-01-26T06:30:55.369Z,925.20
2024-01-26T06:31:55.216Z,925.22
2024-01-26T06:32:55.373Z,925.23
2024-01-26T06:33:55.512Z,925.21
2024-01-26T06:34:55.282Z,925.21
2024-01-26T06:35:55.268Z,925.21
2024-01-26T06:36:55.169Z,925.20
2024-01-26T06:37:55.353Z,925.19
2024-01-26T06:38:55.207Z,925.19
2024-01-26T06:39:55.188Z,925.19
2024-01-26T06:40:55.180Z,925.19
2024-01-26T06:41:55.168Z,925.19
2024-01-26T06:42:55.100Z,925.20
2024-01-26T06:43:55.189Z,925.20
2024-01-26T06:44:55.294Z,925.21
2024-01-26T06:45:55.098Z,925.22
2024-01-26T06:46:55.059Z,925.23
2024-01-26T06:47:55.192Z,925.24
2024-01-26T06:48:55.314Z,925.24
2024-01-26T06:49:55.081Z,925.24
2024-01-26T06:50:55.054Z,925.24
2024-01-26T06:51:55.044Z,925.24
2024-01-26T06:52:55.046Z,925.25
2024-01-26T06:53:55.041Z,925.23
2024-01-26T06:54:55.063Z,925.22
2024-01-26T06:55:54.955Z,925.22
2024-01-26T06:56:55.046Z,925.22
2024-01-26T06:57:55.184Z,925.20
2024-01-26T06:58:54.972Z,925.20
2024-01-26T06:59:54.989Z,925.20
2024-01-26T07:00:54.921Z,925.20
2024-01-26T07:01:54.955Z,925.17
2024-01-26T07:02:55.003Z,925.16
2024-01-26T07:03:55.019Z,925.14
2024-01-26T07:04:54.911Z,925.12
2024-01-26T07:05:55.031Z,925.12
2024-01-26T07:06:54.867Z,925.13
2024-01-26T07:07:54.921Z,925.12
2024-01-26T07:08:54.957Z,925.12
2024-01-26T07:09:54.850Z,925.13
2024-01-26T07:10:54.957Z,925.12
2024-01-26T07:11:54.915Z,925.14
2024-01-26T07:12:54.774Z,925.17
2024-01-26T07:13:54.761Z,925.16
2024-01-26T07:14:55.501Z,925.18
2024-01-26T07:15:54.786Z,925.17
2024-01-26T07:16:54.794Z,925.19
2024-01-26T07:17:54.748Z,925.19
2024-01-26T07:18:54.867Z,925.19
2024-01-26T07:19:54.943Z,925.20
2024-01-26T07:20:54.747Z,925.22
2024-01-26T07:21:54.721Z,925.22
2024-01-26T07:22:54.724Z,925.21
2024-01-26T07:23:54.649Z,925.22
2024-01-26T07:24:54.685Z,925.23
2024-01-26T07:25:54.640Z,925.24
2024-01-26T07:26:54.758Z,925.24
2024-01-26T07:27:54.635Z,925.23
2024-01-26T07:28:54.676Z,925.25
2024-01-26T07:29:54.687Z,925.23
2024-01-26T07:30:54.565Z,925.25
2024-01-26T07:31:54.578Z,925.26
2024-01-26T07:32:54.648Z,925.25
2024-01-26T07:33:54.641Z,925.26
2024-01-26T07:34:54.540Z,925.26
2024-01-26T07:35:54.546Z,925.27
2024-01-26T07:36:54.492Z,925.28
2024-01-26T07:37:54.502Z,925.28
2024-01-26T07:38:54.541Z,925.29
2024-01-26T07:39:54.522Z,925.28
2024-01-26T07:40:54.517Z,925.30
2024-01-26T07:41:54.617Z,925.30
2024-01-26T07:42:54.393Z,925.31
2024-01-26T07:43:54.682Z,925.30
2024-01-26T07:44:54.478Z,925.31
2024-01-26T07:45:54.460Z,925.32
2024-01-26T07:46:54.369Z,925.34
2024-01-26T07:47:54.529Z,925.34
2024-01-26T07:48:54.458Z,925.34
2024-01-26T07:49:54.408Z,925.33
2024-01-26T07:50:54.441Z,925.34
2024-01-26T07:51:54.386Z,925.35
2024-01-26T07:52:54.426Z,925.36
2024-01-26T07:53:54.386Z,925.37
2024-01-26T07:54:54.320Z,925.39
2024-01-26T07:55:54.321Z,925.40
2024-01-26T07:56:54.350Z,925.39
2024-01-26T07:57:54.331Z,925.41
2024-01-26T07:58:54.235Z,925.42
2024-01-26T07:59:54.452Z,925.42
2024-01-26T08:00:55.198Z,925.42
2024-01-26T08:01:54.238Z,925.41
2024-01-26T08:02:54.341Z,925.44
2024-01-26T08:03:54.687Z,925.44
2024-01-26T08:04:54.172Z,925.46
2024-01-26T08:05:54.297Z,925.47
2024-01-26T08:06:54.694Z,925.49
2024-01-26T08:07:54.304Z,925.50
2024-01-26T08:08:54.214Z,925.50
2024-01-26T08:09:54.209Z,925.51
2024-01-26T08:10:54.114Z,925.53
2024-01-26T08:11:55.205Z,925.51
2024-01-26T08:12:54.264Z,925.51
2024-01-26T08:13:54.136Z,925.53
2024-01-26T08:14:54.372Z,925.53
2024-01-26T08:15:54.154Z,925.55
2024-01-26T08:16:54.074Z,925.55
2024-01-26T08:17:54.136Z,925.58
2024-01-26T08:18:54.196Z,925.59
2024-01-26T08:19:54.096Z,925.59
2024-01-26T08:20:54.111Z,925.59
2024-01-26T08:21:54.012Z,925.61
2024-01-26T08:22:54.006Z,925.62
2024-01-26T08:23:54.043Z,925.64
2024-01-26T08:24:54.026Z,925.65
2024-01-26T08:25:54.038Z,925.67
2024-01-26T08:26:54.102Z,925.69
2024-01-26T08:27:54.052Z,925.70
2024-01-26T08:28:54.053Z,925.69
2024-01-26T08:29:54.024Z,925.70
2024-01-26T08:30:53.970Z,925.71
2024-01-26T08:31:53.996Z,925.70
2024-01-26T08:32:54.110Z,925.72
2024-01-26T08:33:54.131Z,925.73
2024-01-26T08:34:54.273Z,925.73
2024-01-26T08:35:54.085Z,925.74
2024-01-26T08:36:53.968Z,925.75
2024-01-26T08:37:53.913Z,925.77
2024-01-26T08:38:53.964Z,925.79
2024-01-26T08:39:53.865Z,925.80
2024-01-26T08:40:53.831Z,925.82
2024-01-26T08:41:53.842Z,925.85
2024-01-26T08:42:53.844Z,925.88
2024-01-26T08:43:53.936Z,925.89
2024-01-26T08:44:53.895Z,925.90
2024-01-26T08:45:53.760Z,925.92
2024-01-26T08:46:55.451Z,925.93
2024-01-26T08:47:53.862Z,925.92
2024-01-26T08:48:53.921Z,925.92
2024-01-26T08:49:53.870Z,925.92
2024-01-26T08:50:53.806Z,925.94
2024-01-26T08:51:53.701Z,925.94
2024-01-26T08:52:53.938Z,925.96
2024-01-26T08:53:53.736Z,925.97
2024-01-26T08:54:53.732Z,925.99
2024-01-26T08:55:53.733Z,925.99
2024-01-26T08:56:53.802Z,925.98
2024-01-26T08:57:53.734Z,926.01
2024-01-26T08:58:53.630Z,926.01
2024-01-26T08:59:53.689Z,926.00
2024-01-26T09:00:53.694Z,925.99
2024-01-26T09:01:53.677Z,926.00
2024-01-26T09:02:53.692Z,925.98
2024-01-26T09:03:53.740Z,925.99
2024-01-26T09:04:53.570Z,926.00
2024-01-26T09:05:53.609Z,926.02
2024-01-26T09:07:00.189Z,926.02
2024-01-26T09:07:53.671Z,926.05
2024-01-26T09:08:53.669Z,926.05
2024-01-26T09:09:53.525Z,926.07
2024-01-26T09:10:53.531Z,926.05
2024-01-26T09:11:53.708Z,926.06
2024-01-26T09:12:53.518Z,926.07
2024-01-26T09:13:53.538Z,926.09
2024-01-26T09:14:53.667Z,926.11
2024-01-26T09:15:53.545Z,926.13
2024-01-26T09:16:53.463Z,926.13
2024-01-26T09:17:53.497Z,926.17
2024-01-26T09:18:53.598Z,926.17
2024-01-26T09:19:53.568Z,926.19
2024-01-26T09:20:53.647Z,926.21
2024-01-26T09:21:53.398Z,926.22
2024-01-26T09:22:53.397Z,926.24
2024-01-26T09:23:53.546Z,926.25
2024-01-26T09:24:53.540Z,926.25
2024-01-26T09:25:54.951Z,926.26
2024-01-26T09:26:53.368Z,926.27
2024-01-26T09:27:53.394Z,926.27
2024-01-26T09:28:53.388Z,926.29
2024-01-26T09:29:53.330Z,926.30
2024-01-26T09:30:53.327Z,926.29
2024-01-26T09:31:53.253Z,926.31
2024-01-26T09:32:53.370Z,926.33
2024-01-26T09:33:53.420Z,926.32
2024-01-26T09:34:53.443Z,926.31
2024-01-26T09:35:53.234Z,926.38
2024-01-26T09:36:55.622Z,926.34
2024-01-26T09:37:53.180Z,926.34
2024-01-26T09:38:53.194Z,926.34
2024-01-26T09:39:53.201Z,926.35
2024-01-26T09:40:53.191Z,926.36
2024-01-26T09:41:53.308Z,926.38
2024-01-26T09:42:53.222Z,926.39
2024-01-26T09:43:53.136Z,926.40
2024-01-26T09:44:53.136Z,926.41
2024-01-26T09:45:53.241Z,926.44
2024-01-26T09:46:53.105Z,926.44
2024-01-26T09:47:53.299Z,926.46
2024-01-26T09:48:53.214Z,926.49
2024-01-26T09:49:53.423Z,926.50
2024-01-26T09:50:53.183Z,926.51
2024-01-26T09:51:53.167Z,926.53
2024-01-26T09:52:53.083Z,926.52
2024-01-26T09:53:53.200Z,926.54
2024-01-26T09:54:53.082Z,926.56
2024-01-26T09:55:52.983Z,926.56
2024-01-26T09:56:53.625Z,926.58
2024-01-26T09:57:53.207Z,926.60
2024-01-26T09:58:52.977Z,926.60
2024-01-26T09:59:52.986Z,926.61
2024-01-26T10:00:53.061Z,926.62
2024-01-26T10:01:52.926Z,926.64
2024-01-26T10:02:53.076Z,926.63
2024-01-26T10:03:53.064Z,926.67
2024-01-26T10:04:52.901Z,926.67
2024-01-26T10:05:52.971Z,926.68
2024-01-26T10:06:52.989Z,926.70
2024-01-26T10:07:52.923Z,926.70
2024-01-26T10:08:52.951Z,926.69
2024-01-26T10:09:55.550Z,926.69
2024-01-26T10:10:52.851Z,926.71
2024-01-26T10:11:52.888Z,926.73
2024-01-26T10:12:53.063Z,926.76
2024-01-26T10:13:52.912Z,926.73
2024-01-26T10:14:52.862Z,926.73
2024-01-26T10:15:52.911Z,926.72
2024-01-26T10:16:52.978Z,926.74
2024-01-26T10:17:53.066Z,926.75
2024-01-26T10:18:52.992Z,926.77
2024-01-26T10:19:53.389Z,926.77
2024-01-26T10:20:52.942Z,926.78
2024-01-26T10:21:52.963Z,926.79
2024-01-26T10:22:52.934Z,926.80
2024-01-26T10:23:52.789Z,926.81
2024-01-26T10:24:52.851Z,926.80
2024-01-26T10:25:54.389Z,926.82
2024-01-26T10:26:52.949Z,926.84
2024-01-26T10:27:53.172Z,926.86
2024-01-26T10:28:53.236Z,926.87
2024-01-26T10:29:54.845Z,926.88
2024-01-26T10:30:52.890Z,926.88
2024-01-26T10:31:53.874Z,926.88
2024-01-26T10:32:53.730Z,926.91
2024-01-26T10:33:52.691Z,926.95
2024-01-26T10:34:52.893Z,926.92
2024-01-26T10:35:53.288Z,926.97
2024-01-26T10:36:53.149Z,926.94
2024-01-26T10:37:52.606Z,926.96
2024-01-26T10:38:53.800Z,926.97
2024-01-26T10:39:53.166Z,926.97
2024-01-26T10:40:52.757Z,926.97
2024-01-26T10:41:52.848Z,926.98
2024-01-26T10:42:52.977Z,926.99
2024-01-26T10:43:52.498Z,927.01
2024-01-26T10:44:52.636Z,927.02
2024-01-26T10:45:52.487Z,927.03
2024-01-26T10:46:52.491Z,927.05
2024-01-26T10:47:52.754Z,927.04
2024-01-26T10:48:53.248Z,927.05
2024-01-26T10:49:52.755Z,927.07
2024-01-26T10:50:52.612Z,927.06
2024-01-26T10:51:52.478Z,927.05
2024-01-26T10:52:52.672Z,927.04
2024-01-26T10:53:52.636Z,927.06
2024-01-26T10:54:53.764Z,927.11
2024-01-26T10:55:52.657Z,927.09
2024-01-26T10:56:52.525Z,927.10
2024-01-26T10:57:52.493Z,927.11
2024-01-26T10:58:52.473Z,927.13
2024-01-26T10:59:52.494Z,927.13
2024-01-26T11:00:52.718Z,927.15
2024-01-26T11:01:52.617Z,927.13
2024-01-26T11:02:52.611Z,927.16
2024-01-26T11:03:52.348Z,927.18
2024-01-26T11:04:52.409Z,927.17
2024-01-26T11:05:52.843Z,927.18
2024-01-26T11:06:52.450Z,927.20
2024-01-26T11:07:53.345Z,927.20
2024-01-26T11:08:56.242Z,927.22
2024-01-26T11:09:53.073Z,927.21
2024-01-26T11:10:52.492Z,927.21
2024-01-26T11:11:52.618Z,927.22
2024-01-26T11:12:52.256Z,927.21
2024-01-26T11:13:52.362Z,927.21
2024-01-26T11:14:52.263Z,927.19
2024-01-26T11:15:52.723Z,927.20
2024-01-26T11:16:52.590Z,927.24
2024-01-26T11:17:52.460Z,927.25
2024-01-26T11:18:52.246Z,927.21
2024-01-26T11:19:52.232Z,927.25
2024-01-26T11:20:52.114Z,927.24
2024-01-26T11:21:52.227Z,927.25
2024-01-26T11:22:52.142Z,927.23
2024-01-26T11:23:52.440Z,927.26
2024-01-26T11:24:52.030Z,927.27
2024-01-26T11:25:54.654Z,927.19
2024-01-26T11:26:52.091Z,927.24
2024-01-26T11:27:52.969Z,927.19
2024-01-26T11:29:02.848Z,927.25
2024-01-26T11:29:52.944Z,927.20
2024-01-26T11:30:51.992Z,927.19
2024-01-26T11:31:53.706Z,927.22
2024-01-26T11:32:52.194Z,927.18
2024-01-26T11:33:52.160Z,927.22
2024-01-26T11:34:52.048Z,927.21
2024-01-26T11:35:52.219Z,927.19
2024-01-26T11:36:52.025Z,927.21
2024-01-26T11:37:52.412Z,927.24
2024-01-26T11:38:52.056Z,927.22
2024-01-26T11:39:51.940Z,927.24
2024-01-26T11:40:51.946Z,927.23
2024-01-26T11:41:52.163Z,927.24
2024-01-26T11:42:51.969Z,927.25
2024-01-26T11:43:51.974Z,927.24
2024-01-26T11:44:52.357Z,927.24
2024-01-26T11:45:51.986Z,927.25
2024-01-26T11:46:51.788Z,927.26
2024-01-26T11:47:52.281Z,927.24
2024-01-26T11:48:51.935Z,927.27
2024-01-26T11:49:51.959Z,927.29
2024-01-26T11:50:51.927Z,927.30
2024-01-26T11:51:51.813Z,927.33
2024-01-26T11:52:52.624Z,927.32
2024-01-26T11:53:52.175Z,927.31
2024-01-26T11:54:51.818Z,927.32
2024-01-26T11:55:51.950Z,927.33
2024-01-26T11:56:52.473Z,927.34
2024-01-26T11:57:51.863Z,927.32
2024-01-26T11:58:51.850Z,927.33
2024-01-26T11:59:51.893Z,927.33
2024-01-26T12:00:52.413Z,927.32
2024-01-26T12:01:51.786Z,927.35
2024-01-26T12:02:51.736Z,927.32
2024-01-26T12:03:51.895Z,927.34
2024-01-26T12:04:51.752Z,927.33
2024-01-26T12:05:51.959Z,927.33
2024-01-26T12:06:51.664Z,927.36
2024-01-26T12:07:51.706Z,927.34
2024-01-26T12:08:51.711Z,927.34
2024-01-26T12:09:51.674Z,927.37
2024-01-26T12:10:51.640Z,927.37
2024-01-26T12:11:51.843Z,927.39
2024-01-26T12:12:51.566Z,927.40
2024-01-26T12:13:51.869Z,927.41
2024-01-26T12:14:51.671Z,927.41
2024-01-26T12:15:51.599Z,927.41
2024-01-26T12:16:51.495Z,927.43
2024-01-26T12:17:51.775Z,927.44
2024-01-26T12:18:51.767Z,927.42
2024-01-26T12:19:51.920Z,927.46
2024-01-26T12:20:51.629Z,927.44
2024-01-26T12:21:51.582Z,927.41
2024-01-26T12:22:51.609Z,927.42
2024-01-26T12:23:51.736Z,927.45
2024-01-26T12:24:51.524Z,927.45
2024-01-26T12:25:51.725Z,927.43
2024-01-26T12:26:51.523Z,927.45
2024-01-26T12:28:17.555Z,927.43
2024-01-26T12:28:51.752Z,927.39